createdAt,value
2022-08-03T00:01:20.201Z,2.87
2022-08-03T00:03:46.607Z,2.49
2022-08-03T00:06:12.997Z,2.62
2022-08-03T00:08:40.282Z,2.65
2022-08-03T00:11:06.837Z,2.48
2022-08-03T00:13:33.260Z,2.59
2022-08-03T00:15:59.720Z,2.54
2022-08-03T00:18:26.141Z,2.57
2022-08-03T00:20:52.530Z,2.74
2022-08-03T00:23:18.994Z,2.69
2022-08-03T00:25:45.395Z,2.49
2022-08-03T00:28:11.773Z,2.59
2022-08-03T00:30:38.431Z,2.39
2022-08-03T00:33:08.289Z,2.24
2022-08-03T00:35:49.245Z,2.49
2022-08-03T00:38:17.507Z,2.62
2022-08-03T00:40:43.886Z,2.75
2022-08-03T00:43:10.316Z,2.70
2022-08-03T00:45:36.751Z,2.33
2022-08-03T00:48:03.128Z,2.36
2022-08-03T00:50:29.522Z,2.38
2022-08-03T00:52:55.972Z,2.41
2022-08-03T00:55:22.360Z,2.50
2022-08-03T00:57:48.754Z,2.53
2022-08-03T01:00:15.320Z,2.47
2022-08-03T01:02:41.713Z,2.56
2022-08-03T01:05:08.106Z,2.52
2022-08-03T01:07:34.571Z,2.51
2022-08-03T01:10:00.947Z,2.68
2022-08-03T01:12:27.343Z,2.68
2022-08-03T01:14:53.884Z,2.54
2022-08-03T01:17:20.281Z,2.60
2022-08-03T01:19:46.677Z,2.29
2022-08-03T01:22:13.350Z,2.28
2022-08-03T01:24:40.882Z,2.13
2022-08-03T01:27:07.430Z,2.45
2022-08-03T01:29:33.875Z,2.50
2022-08-03T01:32:59.657Z,2.43
2022-08-03T01:34:46.661Z,2.48
2022-08-03T01:37:13.096Z,2.35
2022-08-03T01:39:39.475Z,2.49
2022-08-03T01:42:05.953Z,2.38
2022-08-03T01:44:32.348Z,2.39
2022-08-03T01:46:58.778Z,2.51
2022-08-03T01:49:25.396Z,2.31
2022-08-03T01:51:58.496Z,2.33
2022-08-03T01:54:31.158Z,2.40
2022-08-03T01:56:57.571Z,2.41
2022-08-03T01:59:23.973Z,2.48
2022-08-03T02:02:19.526Z,2.43
2022-08-03T02:04:36.815Z,2.36
2022-08-03T02:07:03.559Z,2.25
2022-08-03T02:09:30.033Z,2.56
2022-08-03T02:11:56.456Z,2.50
2022-08-03T02:14:22.864Z,2.43
2022-08-03T02:16:49.307Z,2.41
2022-08-03T02:19:15.717Z,2.45
2022-08-03T02:21:56.485Z,2.51
2022-08-03T02:24:27.596Z,2.46
2022-08-03T02:26:54.062Z,2.57
2022-08-03T02:29:20.486Z,2.32
2022-08-03T02:32:05.597Z,2.27
2022-08-03T02:34:31.998Z,2.32
2022-08-03T02:36:58.378Z,2.54
2022-08-03T02:39:24.886Z,2.56
2022-08-03T02:41:51.281Z,2.34
2022-08-03T02:44:17.692Z,2.32
2022-08-03T02:46:44.190Z,2.25
2022-08-03T02:49:40.979Z,2.37
2022-08-03T02:51:57.019Z,2.44
2022-08-03T02:54:23.492Z,2.62
2022-08-03T02:56:49.910Z,2.51
2022-08-03T02:59:16.497Z,2.75
2022-08-03T03:01:42.902Z,2.73
2022-08-03T03:04:09.336Z,2.63
2022-08-03T03:06:35.776Z,2.55
2022-08-03T03:09:03.122Z,2.53
2022-08-03T03:11:29.517Z,2.60
2022-08-03T03:13:55.944Z,2.35
2022-08-03T03:16:22.325Z,2.40
2022-08-03T03:18:48.706Z,2.53
2022-08-03T03:21:15.141Z,2.51
2022-08-03T03:23:41.587Z,2.43
2022-08-03T03:26:08.116Z,2.52
2022-08-03T03:28:34.607Z,2.38
2022-08-03T03:31:00.993Z,2.59
2022-08-03T03:33:28.586Z,2.62
2022-08-03T03:35:55.271Z,2.52
2022-08-03T03:38:21.737Z,2.47
2022-08-03T03:40:48.116Z,2.43
2022-08-03T03:43:14.628Z,2.52
2022-08-03T03:45:41.015Z,2.40
2022-08-03T03:48:07.411Z,2.49
2022-08-03T03:50:33.907Z,2.21
2022-08-03T03:53:00.368Z,2.52
2022-08-03T03:55:26.858Z,2.46
2022-08-03T03:57:53.300Z,2.28
2022-08-03T04:00:19.743Z,2.71
2022-08-03T04:02:46.121Z,2.72
2022-08-03T04:05:12.663Z,2.48
2022-08-03T04:07:39.089Z,2.45
2022-08-03T04:10:14.064Z,2.35
2022-08-03T04:12:50.129Z,2.69
2022-08-03T04:15:17.123Z,2.53
2022-08-03T04:17:43.600Z,2.56
2022-08-03T04:20:10.034Z,2.72
2022-08-03T04:22:36.538Z,2.54
2022-08-03T04:25:03.079Z,2.59
2022-08-03T04:27:29.503Z,2.52
2022-08-03T04:29:55.909Z,2.56
2022-08-03T04:32:22.440Z,2.49
2022-08-03T04:34:48.820Z,2.48
2022-08-03T04:37:15.266Z,2.60
2022-08-03T04:39:41.832Z,2.67
2022-08-03T04:42:09.175Z,2.53
2022-08-03T04:44:35.723Z,2.76
2022-08-03T04:47:02.201Z,2.62
2022-08-03T04:49:28.659Z,2.66
2022-08-03T04:51:55.210Z,2.72
2022-08-03T04:54:21.665Z,2.92
2022-08-03T04:56:48.062Z,2.80
2022-08-03T04:59:14.474Z,2.82
2022-08-03T05:01:40.997Z,2.85
2022-08-03T05:04:07.417Z,3.03
2022-08-03T05:06:33.801Z,3.25
2022-08-03T05:09:01.855Z,3.09
2022-08-03T05:11:28.275Z,3.01
2022-08-03T05:13:56.245Z,3.15
2022-08-03T05:16:22.703Z,3.16
2022-08-03T05:18:49.088Z,3.01
2022-08-03T05:21:15.478Z,3.03
2022-08-03T05:23:41.943Z,3.07
2022-08-03T05:26:08.754Z,3.02
2022-08-03T05:28:36.109Z,3.21
2022-08-03T05:31:02.556Z,2.75
2022-08-03T05:33:28.943Z,3.11
2022-08-03T05:36:03.372Z,3.11
2022-08-03T05:38:34.841Z,3.21
2022-08-03T05:41:22.507Z,3.30
2022-08-03T05:43:48.232Z,2.99
2022-08-03T05:46:14.622Z,3.34
2022-08-03T05:48:41.062Z,3.13
2022-08-03T05:51:07.497Z,3.05
2022-08-03T05:53:33.968Z,2.90
2022-08-03T05:56:02.695Z,3.19
2022-08-03T05:58:39.922Z,3.44
2022-08-03T06:01:06.355Z,3.35
2022-08-03T06:03:35.098Z,3.33
2022-08-03T06:06:01.571Z,3.14
2022-08-03T06:08:27.968Z,2.95
2022-08-03T06:10:54.403Z,3.07
2022-08-03T06:13:20.905Z,2.84
2022-08-03T06:15:47.278Z,2.85
2022-08-03T06:18:13.697Z,3.00
2022-08-03T06:20:40.192Z,2.83
2022-08-03T06:23:06.601Z,2.54
2022-08-03T06:25:33.948Z,2.55
2022-08-03T06:28:00.396Z,2.62
2022-08-03T06:30:26.862Z,2.82
2022-08-03T06:32:53.299Z,2.68
2022-08-03T06:35:19.839Z,2.84
2022-08-03T06:37:46.287Z,2.85
2022-08-03T06:40:13.769Z,2.89
2022-08-03T06:42:40.485Z,2.82
2022-08-03T06:45:08.268Z,2.65
2022-08-03T06:47:34.695Z,2.62
2022-08-03T06:50:12.570Z,2.70
2022-08-03T06:52:43.150Z,2.94
2022-08-03T06:55:09.587Z,2.74
2022-08-03T06:57:36.058Z,2.78
2022-08-03T07:00:08.953Z,2.53
2022-08-03T07:02:38.258Z,2.55
2022-08-03T07:05:05.547Z,2.54
2022-08-03T07:07:31.946Z,2.74
2022-08-03T07:09:58.570Z,3.03
2022-08-03T07:12:24.952Z,3.24
2022-08-03T07:14:51.404Z,2.77
2022-08-03T07:17:17.926Z,2.75
2022-08-03T07:19:44.333Z,2.77
2022-08-03T07:22:10.794Z,2.87
2022-08-03T07:24:37.225Z,3.20
2022-08-03T07:27:03.617Z,2.86
2022-08-03T07:29:29.987Z,3.07
2022-08-03T07:32:01.259Z,2.85
2022-08-03T07:34:27.637Z,3.04
2022-08-03T07:36:54.082Z,3.04
2022-08-03T07:39:20.566Z,3.09
2022-08-03T07:41:46.956Z,3.47
2022-08-03T07:44:13.357Z,3.13
2022-08-03T07:46:39.821Z,3.21
2022-08-03T07:49:06.214Z,3.22
2022-08-03T07:51:32.665Z,3.08
2022-08-03T07:53:59.114Z,2.99
2022-08-03T07:56:25.519Z,3.09
2022-08-03T07:58:51.918Z,3.21
2022-08-03T08:01:18.443Z,3.11
2022-08-03T08:03:52.660Z,3.49
2022-08-03T08:06:20.143Z,3.14
2022-08-03T08:08:46.615Z,2.91
2022-08-03T08:11:13.104Z,2.87
2022-08-03T08:13:39.668Z,3.09
2022-08-03T08:16:06.107Z,2.92
2022-08-03T08:18:32.506Z,2.82
2022-08-03T08:20:59.018Z,2.87
2022-08-03T08:23:41.884Z,3.11
2022-08-03T08:26:10.192Z,2.94
2022-08-03T08:28:36.579Z,2.88
2022-08-03T08:31:04.817Z,3.16
2022-08-03T08:34:05.100Z,3.04
2022-08-03T08:36:17.713Z,3.11
2022-08-03T08:38:44.211Z,3.07
2022-08-03T08:41:10.792Z,3.06
2022-08-03T08:43:37.359Z,2.92
2022-08-03T08:46:03.865Z,2.96
2022-08-03T08:48:30.300Z,3.11
2022-08-03T08:50:56.682Z,3.02
2022-08-03T08:53:27.221Z,3.08
2022-08-03T08:55:58.655Z,3.05
2022-08-03T08:58:26.605Z,3.19
2022-08-03T09:00:53.393Z,2.92
2022-08-03T09:03:22.550Z,3.11
2022-08-03T09:05:56.469Z,3.11
2022-08-03T09:08:23.008Z,3.21
2022-08-03T09:10:49.420Z,3.26
2022-08-03T09:13:15.855Z,3.07
2022-08-03T09:15:42.263Z,3.02
2022-08-03T09:18:27.563Z,3.17
2022-08-03T09:21:03.799Z,3.27
2022-08-03T09:24:01.386Z,3.19
2022-08-03T09:26:29.490Z,3.03
2022-08-03T09:29:02.073Z,3.30
2022-08-03T09:31:30.423Z,3.21
2022-08-03T09:33:56.897Z,3.33
2022-08-03T09:36:23.284Z,3.02
2022-08-03T09:38:50.327Z,3.05
2022-08-03T09:41:16.943Z,2.89
2022-08-03T09:43:43.347Z,2.97
2022-08-03T09:46:09.760Z,3.11
2022-08-03T09:48:36.247Z,3.26
2022-08-03T09:51:14.474Z,3.24
2022-08-03T09:53:59.772Z,3.34
2022-08-03T09:56:33.639Z,3.41
2022-08-03T09:59:03.043Z,3.33
2022-08-03T10:01:29.536Z,3.32
2022-08-03T10:04:03.108Z,3.33
2022-08-03T10:06:31.391Z,2.97
2022-08-03T10:08:57.809Z,3.20
2022-08-03T10:11:24.339Z,3.10
2022-08-03T10:13:58.024Z,3.30
2022-08-03T10:16:28.001Z,3.35
2022-08-03T10:18:54.433Z,3.06
2022-08-03T10:21:20.878Z,2.52
2022-08-03T10:23:47.328Z,2.37
2022-08-03T10:26:13.801Z,2.54
2022-08-03T10:28:44.744Z,2.52
2022-08-03T10:31:11.810Z,2.56
2022-08-03T10:33:50.891Z,2.63
2022-08-03T10:36:19.119Z,2.24
2022-08-03T10:38:45.670Z,2.24
2022-08-03T10:41:12.122Z,2.38
2022-08-03T10:43:38.644Z,2.66
2022-08-03T10:46:05.113Z,2.80
2022-08-03T10:48:31.719Z,2.54
2022-08-03T10:50:58.128Z,2.29
2022-08-03T10:53:24.570Z,2.39
2022-08-03T10:55:50.976Z,2.55
2022-08-03T10:58:30.423Z,2.35
2022-08-03T11:00:57.475Z,2.45
2022-08-03T11:03:23.916Z,2.33
2022-08-03T11:05:50.352Z,2.45
2022-08-03T11:08:17.397Z,2.18
2022-08-03T11:10:43.862Z,2.35
2022-08-03T11:13:10.254Z,2.28
2022-08-03T11:15:36.803Z,2.43
2022-08-03T11:18:03.358Z,2.58
2022-08-03T11:20:33.678Z,2.56
2022-08-03T11:23:00.200Z,2.42
2022-08-03T11:25:54.403Z,2.19
2022-08-03T11:28:13.116Z,2.22
2022-08-03T11:30:41.133Z,2.58
2022-08-03T11:33:07.550Z,2.31
2022-08-03T11:35:34.051Z,2.20
2022-08-03T11:38:03.058Z,2.16
2022-08-03T11:40:31.571Z,2.11
2022-08-03T11:42:58.172Z,2.12
2022-08-03T11:45:24.634Z,2.21
2022-08-03T11:47:51.620Z,2.12
2022-08-03T11:50:18.143Z,2.12
2022-08-03T11:52:44.621Z,2.12
2022-08-03T11:55:11.110Z,1.85
2022-08-03T11:59:00.985Z,2.20
2022-08-03T12:00:23.997Z,2.13
2022-08-03T12:02:52.679Z,2.11
2022-08-03T12:05:19.238Z,1.97
2022-08-03T12:08:03.408Z,1.83
2022-08-03T12:10:32.187Z,2.01
2022-08-03T12:12:58.752Z,1.80
2022-08-03T12:15:25.332Z,2.05
2022-08-03T12:17:55.986Z,2.01
2022-08-03T12:20:31.247Z,2.10
2022-08-03T12:23:01.211Z,2.12
2022-08-03T12:25:38.616Z,1.95
2022-08-03T12:28:06.310Z,1.90
2022-08-03T12:30:52.698Z,2.14
2022-08-03T12:33:19.341Z,2.01
2022-08-03T12:35:52.508Z,1.88
2022-08-03T12:38:21.023Z,2.04
2022-08-03T12:40:47.479Z,1.89
2022-08-03T12:43:13.919Z,1.83
2022-08-03T12:45:40.395Z,1.91
2022-08-03T12:48:06.826Z,1.83
2022-08-03T12:50:33.268Z,1.91
2022-08-03T12:52:59.802Z,2.13
2022-08-03T12:55:26.380Z,1.79
2022-08-03T12:57:52.789Z,1.92
2022-08-03T13:00:21.633Z,1.94
2022-08-03T13:03:17.350Z,2.04
2022-08-03T13:05:42.553Z,1.86
2022-08-03T13:08:09.101Z,1.88
2022-08-03T13:10:37.977Z,1.86
2022-08-03T13:13:04.408Z,1.83
2022-08-03T13:15:33.522Z,1.88
2022-08-03T13:18:05.238Z,1.80
2022-08-03T13:20:31.672Z,1.95
2022-08-03T13:23:00.952Z,1.86
2022-08-03T13:25:27.594Z,1.90
2022-08-03T13:28:04.120Z,1.88
2022-08-03T13:30:31.619Z,1.88
2022-08-03T13:32:58.093Z,2.02
2022-08-03T13:35:25.506Z,1.90
2022-08-03T13:37:52.030Z,1.99
2022-08-03T13:40:18.517Z,1.83
2022-08-03T13:42:50.335Z,1.99
2022-08-03T13:45:16.855Z,1.73
2022-08-03T13:47:43.410Z,1.87
2022-08-03T13:50:09.806Z,1.75
2022-08-03T13:52:36.304Z,1.72
2022-08-03T13:55:02.802Z,1.76
2022-08-03T13:58:03.233Z,1.64
2022-08-03T14:00:26.671Z,1.78
2022-08-03T14:03:01.823Z,1.89
2022-08-03T14:05:32.065Z,1.92
2022-08-03T14:08:04.421Z,2.08
2022-08-03T14:10:31.679Z,2.03
2022-08-03T14:12:58.174Z,1.99
2022-08-03T14:15:24.578Z,1.62
2022-08-03T14:17:51.055Z,1.85
2022-08-03T14:20:36.742Z,1.79
2022-08-03T14:23:04.053Z,1.76
2022-08-03T14:25:30.447Z,1.82
2022-08-03T14:28:09.822Z,1.70
2022-08-03T14:30:36.223Z,1.53
2022-08-03T14:33:02.718Z,1.93
2022-08-03T14:35:29.154Z,1.72
2022-08-03T14:37:55.634Z,1.80
2022-08-03T14:40:22.051Z,1.73
2022-08-03T14:42:48.478Z,1.68
2022-08-03T14:45:20.546Z,1.63
2022-08-03T14:50:28.713Z,1.65
2022-08-03T14:50:42.843Z,1.79
2022-08-03T14:53:10.728Z,1.71
2022-08-03T14:55:38.452Z,1.93
2022-08-03T14:58:19.765Z,1.67
2022-08-03T15:00:47.780Z,1.58
2022-08-03T15:03:15.896Z,1.52
2022-08-03T15:05:43.554Z,1.61
2022-08-03T15:08:10.020Z,1.49
2022-08-03T15:10:44.412Z,1.56
2022-08-03T15:13:12.212Z,1.66
2022-08-03T15:15:38.700Z,1.43
2022-08-03T15:18:05.126Z,1.38
2022-08-03T15:20:43.270Z,1.39
2022-08-03T15:23:10.605Z,1.48
2022-08-03T15:26:03.957Z,1.44
2022-08-03T15:28:23.510Z,1.52
2022-08-03T15:30:49.990Z,1.35
2022-08-03T15:33:16.420Z,1.38
2022-08-03T15:35:42.813Z,1.35
2022-08-03T15:38:09.860Z,1.33
2022-08-03T15:40:36.398Z,1.36
2022-08-03T15:43:02.801Z,1.34
2022-08-03T15:45:29.254Z,1.30
2022-08-03T15:48:02.890Z,1.23
2022-08-03T15:50:29.397Z,1.41
2022-08-03T15:52:55.803Z,1.41
2022-08-03T15:55:22.520Z,1.38
2022-08-03T15:59:09.104Z,1.30
2022-08-03T16:00:35.436Z,1.36
2022-08-03T16:03:01.971Z,1.53
2022-08-03T16:05:28.375Z,1.47
2022-08-03T16:08:02.611Z,1.42
2022-08-03T16:10:30.547Z,1.35
2022-08-03T16:12:56.946Z,1.32
2022-08-03T16:15:23.400Z,1.36
2022-08-03T16:17:49.941Z,1.41
2022-08-03T16:20:31.261Z,1.53
2022-08-03T16:23:01.551Z,1.44
2022-08-03T16:25:35.537Z,1.52
2022-08-03T16:28:07.867Z,1.55
2022-08-03T16:30:39.647Z,1.47
2022-08-03T16:33:06.430Z,1.41
2022-08-03T16:35:32.856Z,1.40
2022-08-03T16:37:59.261Z,1.44
2022-08-03T16:40:25.786Z,1.58
2022-08-03T16:42:52.189Z,1.62
2022-08-03T16:45:18.584Z,1.47
2022-08-03T16:47:45.099Z,1.56
2022-08-03T16:50:19.080Z,1.86
2022-08-03T16:52:47.416Z,1.66
2022-08-03T16:55:15.543Z,1.57
2022-08-03T16:57:59.364Z,1.61
2022-08-03T17:00:34.376Z,1.50
2022-08-03T17:03:12.531Z,1.51
2022-08-03T17:05:49.546Z,1.42
2022-08-03T17:08:16.391Z,1.66
2022-08-03T17:10:52.825Z,1.53
2022-08-03T17:13:22.477Z,1.45
2022-08-03T17:16:00.727Z,1.84
2022-08-03T17:18:28.120Z,1.72
2022-08-03T17:20:54.550Z,1.67
2022-08-03T17:23:35.570Z,1.65
2022-08-03T17:26:04.861Z,1.85
2022-08-03T17:28:49.702Z,1.96
2022-08-03T17:31:22.891Z,2.06
2022-08-03T17:33:57.475Z,2.29
2022-08-03T17:36:32.974Z,2.17
2022-08-03T17:39:08.553Z,2.22
2022-08-03T17:41:35.432Z,2.22
2022-08-03T17:44:15.465Z,2.30
2022-08-03T17:46:44.443Z,2.10
2022-08-03T17:49:24.496Z,2.34
2022-08-03T17:51:53.094Z,2.31
2022-08-03T17:54:20.152Z,2.16
2022-08-03T17:56:46.764Z,2.38
2022-08-03T17:59:13.319Z,2.27
2022-08-03T18:02:02.589Z,2.23
2022-08-03T18:04:30.061Z,2.52
2022-08-03T18:06:57.059Z,2.38
2022-08-03T18:10:06.159Z,2.37
2022-08-03T18:12:10.143Z,2.47
2022-08-03T18:14:36.549Z,2.34
2022-08-03T18:17:03.003Z,2.40
2022-08-03T18:20:02.471Z,2.63
2022-08-03T18:22:15.851Z,2.58
2022-08-03T18:24:42.297Z,2.45
2022-08-03T18:27:08.870Z,2.37
2022-08-03T18:29:35.308Z,2.31
2022-08-03T18:32:05.312Z,2.49
2022-08-03T18:34:34.473Z,2.46
2022-08-03T18:37:01.103Z,2.38
2022-08-03T18:39:34.082Z,2.31
2022-08-03T18:42:19.625Z,2.20
2022-08-03T18:44:54.231Z,2.44
2022-08-03T18:47:22.482Z,2.33
2022-08-03T18:49:48.990Z,2.30
2022-08-03T18:52:15.404Z,2.23
2022-08-03T18:54:51.769Z,2.26
2022-08-03T18:57:30.436Z,2.25
2022-08-03T19:00:01.428Z,2.24
2022-08-03T19:02:28.915Z,2.40
2022-08-03T19:04:55.293Z,2.20
2022-08-03T19:07:24.693Z,2.22
2022-08-03T19:09:51.234Z,2.26
2022-08-03T19:12:31.163Z,2.26
2022-08-03T19:15:03.173Z,2.00
2022-08-03T19:17:29.771Z,1.90
2022-08-03T19:19:56.226Z,1.95
2022-08-03T19:22:22.753Z,2.19
2022-08-03T19:24:49.314Z,2.22
2022-08-03T19:27:16.117Z,2.09
2022-08-03T19:29:59.771Z,2.09
2022-08-03T19:32:27.588Z,2.00
2022-08-03T19:34:55.097Z,2.20
2022-08-03T19:37:22.197Z,2.15
2022-08-03T19:39:56.698Z,2.24
2022-08-03T19:42:23.444Z,2.22
2022-08-03T19:44:49.851Z,2.34
2022-08-03T19:47:18.377Z,2.31
2022-08-03T19:50:06.302Z,2.44
2022-08-03T19:52:34.465Z,2.48
2022-08-03T19:55:01.050Z,2.00
2022-08-03T19:57:27.487Z,2.14
2022-08-03T19:59:53.971Z,2.41
2022-08-03T20:02:26.598Z,2.33
2022-08-03T20:04:53.760Z,2.33
2022-08-03T20:07:22.798Z,2.31
2022-08-03T20:09:56.025Z,2.40
2022-08-03T20:12:26.448Z,2.46
2022-08-03T20:14:54.826Z,2.49
2022-08-03T20:17:22.738Z,2.28
2022-08-03T20:20:09.147Z,2.41
2022-08-03T20:22:35.638Z,2.43
2022-08-03T20:25:05.531Z,2.83
2022-08-03T20:27:32.191Z,2.57
2022-08-03T20:30:18.614Z,2.43
2022-08-03T20:32:52.807Z,2.25
2022-08-03T20:35:19.303Z,2.31
2022-08-03T20:37:46.627Z,2.38
2022-08-03T20:40:13.117Z,2.41
2022-08-03T20:42:40.694Z,2.42
2022-08-03T20:45:15.132Z,2.23
2022-08-03T20:47:53.636Z,2.63
2022-08-03T20:50:20.046Z,2.44
2022-08-03T20:52:49.728Z,2.61
2022-08-03T20:55:17.108Z,2.40
2022-08-03T20:57:43.514Z,2.50
2022-08-03T21:00:15.715Z,2.43
2022-08-03T21:02:42.172Z,2.30
2022-08-03T21:05:09.229Z,2.38
2022-08-03T21:08:04.478Z,2.48
2022-08-03T21:10:24.739Z,2.33
2022-08-03T21:13:13.573Z,2.34
2022-08-03T21:16:03.261Z,2.53
2022-08-03T21:18:27.814Z,2.42
2022-08-03T21:20:55.645Z,2.30
2022-08-03T21:23:39.732Z,2.43
2022-08-03T21:26:08.536Z,2.37
2022-08-03T21:28:34.957Z,2.59
2022-08-03T21:31:01.384Z,2.21
2022-08-03T21:33:27.869Z,2.68
2022-08-03T21:35:54.258Z,2.13
2022-08-03T21:38:20.687Z,2.37
2022-08-03T21:40:56.493Z,2.23
2022-08-03T21:43:22.983Z,2.21
2022-08-03T21:45:49.381Z,2.14
2022-08-03T21:48:15.891Z,2.20
2022-08-03T21:50:42.351Z,2.08
2022-08-03T21:53:08.793Z,2.11
2022-08-03T21:55:35.244Z,1.87
2022-08-03T21:58:01.633Z,1.96
2022-08-03T22:00:28.020Z,2.24
2022-08-03T22:02:55.761Z,1.93
2022-08-03T22:05:42.935Z,1.92
2022-08-03T22:08:09.005Z,1.93
2022-08-03T22:10:35.459Z,2.11
2022-08-03T22:13:01.868Z,1.89
2022-08-03T22:15:28.324Z,1.98
2022-08-03T22:17:57.198Z,1.98
2022-08-03T22:20:23.884Z,2.03
2022-08-03T22:22:55.352Z,2.10
2022-08-03T22:25:22.759Z,1.90
2022-08-03T22:27:49.219Z,2.01
2022-08-03T22:30:15.663Z,1.79
2022-08-03T22:32:42.039Z,1.82
2022-08-03T22:35:08.421Z,1.53
2022-08-03T22:37:34.874Z,1.98
2022-08-03T22:40:01.727Z,1.88
2022-08-03T22:42:28.209Z,1.70
2022-08-03T22:44:54.696Z,1.68
2022-08-03T22:47:22.540Z,1.80
2022-08-03T22:49:49.510Z,1.58
2022-08-03T22:52:36.041Z,1.74
2022-08-03T22:55:02.422Z,1.81
2022-08-03T22:57:28.847Z,1.76
2022-08-03T22:59:55.302Z,1.79
2022-08-03T23:02:21.814Z,1.84
2022-08-03T23:04:48.301Z,1.74
2022-08-03T23:07:14.809Z,1.75
2022-08-03T23:09:41.221Z,1.79
2022-08-03T23:12:07.666Z,1.72
2022-08-03T23:14:34.268Z,1.82
2022-08-03T23:17:00.728Z,1.77
2022-08-03T23:19:27.136Z,1.65
2022-08-03T23:22:02.814Z,1.51
2022-08-03T23:24:30.482Z,1.76
2022-08-03T23:26:57.094Z,1.78
2022-08-03T23:29:23.495Z,1.56
2022-08-03T23:31:49.922Z,1.53
2022-08-03T23:34:16.910Z,1.69
2022-08-03T23:36:43.351Z,1.50
2022-08-03T23:39:09.871Z,1.52
2022-08-03T23:41:36.491Z,1.41
2022-08-03T23:44:02.891Z,1.67
2022-08-03T23:46:30.157Z,1.63
2022-08-03T23:48:56.852Z,1.56
2022-08-03T23:51:23.259Z,1.94
2022-08-03T23:53:49.969Z,1.76
2022-08-03T23:56:16.500Z,1.90
2022-08-03T23:58:42.914Z,1.68
